8TL YMAY-YSWH

Flight info

Callsign 8TL
Flight time N/A
Altitude 8000
Route MAKIV
Aircraft C208/L-SDFGR/C

Departure

Time N/A
Airport Albury Airport (YMAY)

Arrival

Time 2026-05-08 03:36
Airport Swan Hill Airport (YSWH)
Time Latitude Longitude Altitude Speed Heading
2026-05-08 03:33 -35.39609 143.51045 938 ft 126 kts 72°
2026-05-08 03:33 -35.39429 143.52061 941 ft 119 kts 101°
2026-05-08 03:34 -35.39379 143.53042 960 ft 114 kts 93°
2026-05-08 03:34 -35.39339 143.53991 956 ft 108 kts 96°
2026-05-08 03:34 -35.39281 143.54916 951 ft 109 kts 94°
2026-05-08 03:34 -35.39192 143.55805 954 ft 102 kts 71°
2026-05-08 03:35 -35.38695 143.56433 920 ft 99 kts 25°
2026-05-08 03:35 -35.38048 143.56578 897 ft 93 kts 345°
2026-05-08 03:35 -35.37709 143.56369 849 ft 70 kts 294°
2026-05-08 03:35 -35.37536 143.55812 747 ft 56 kts 264°
2026-05-08 03:36 -35.37525 143.55330 646 ft 58 kts 259°
2026-05-08 03:36 -35.37518 143.54815 452 ft 63 kts 263°
2026-05-08 03:36 -35.37513 143.54282 281 ft 64 kts 263°
2026-05-08 03:36 -35.37505 143.53785 238 ft 46 kts 266°
2026-05-08 03:37 -35.37503 143.53556 237 ft 13 kts 277°
2026-05-08 03:37 -35.37503 143.53523 237 ft 5 kts 105°
2026-05-08 03:37 -35.37504 143.53630 238 ft 20 kts 91°
2026-05-08 03:37 -35.37507 143.53849 237 ft 25 kts 90°
2026-05-08 03:38 -35.37508 143.54013 238 ft 16 kts 91°
2026-05-08 03:38 -35.37572 143.54066 237 ft 14 kts 181°
2026-05-08 03:38 -35.37683 143.54065 236 ft 14 kts 181°
2026-05-08 03:38 -35.37744 143.54027 236 ft 9 kts 257°
2026-05-08 03:39 -35.37747 143.54014 237 ft 2 kts 229°
2026-05-08 03:39 -35.37784 143.54013 237 ft 2 kts 158°
2026-05-08 03:39 -35.37784 143.54019 236 ft 0 kts 33°
2026-05-08 03:39 -35.37780 143.54023 236 ft 0 kts 42°